Time;durP1;ratioP1;P1;durP2;ratioP2;P2;SDS_P1;SDS_P2;PMS_P1;PMS_P2;Temp;Humidity;BMP_temperature;BMP_pressure;BME280_temperature;BME280_humidity;BME280_pressure;Samples;Min_cycle;Max_cycle;Signal;HPM_P1;HPM_P2
2022/07/27 00:01:11;;;;;;;8.02;6.18;;;;;;;20.52;68.70;99678.41;4497533;31;33981;-80
2022/07/27 00:03:39;;;;;;;7.28;6.00;;;;;;;21.43;64.70;99681.13;4497313;31;32537;-76
2022/07/27 00:06:07;;;;;;;9.18;6.47;;;;;;;20.97;65.75;99688.16;4498590;31;32232;-79
2022/07/27 00:08:35;;;;;;;8.98;5.75;;;;;;;20.52;66.94;99689.81;4490040;31;33392;-77
2022/07/27 00:11:03;;;;;;;9.05;6.25;;;;;;;20.65;66.82;99688.13;4498262;31;33771;-79
2022/07/27 00:13:31;;;;;;;8.90;5.82;;;;;;;21.30;64.26;99690.78;4491142;31;34491;-80
2022/07/27 00:15:58;;;;;;;6.53;5.32;;;;;;;19.69;68.84;99689.41;4497017;31;33203;-78
2022/07/27 00:18:26;;;;;;;8.55;5.28;;;;;;;20.60;66.43;99692.50;4487574;31;31691;-79
2022/07/27 00:20:53;;;;;;;7.57;5.72;;;;;;;20.90;64.85;99691.69;4497225;31;33766;-80
2022/07/27 00:23:21;;;;;;;8.02;5.68;;;;;;;20.18;67.76;99687.06;4497233;31;34391;-77
2022/07/27 00:25:49;;;;;;;8.23;6.07;;;;;;;19.72;69.55;99693.84;4496120;31;35700;-80
2022/07/27 00:28:16;;;;;;;8.88;6.22;;;;;;;20.75;65.81;99692.53;4497336;31;34083;-76
2022/07/27 00:30:44;;;;;;;8.27;5.87;;;;;;;20.30;67.84;99687.97;4497572;31;34005;-78
2022/07/27 00:33:11;;;;;;;9.10;5.87;;;;;;;20.14;67.97;99693.16;4495257;31;33649;-81
2022/07/27 00:35:43;;;;;;;8.70;6.15;;;;;;;19.52;70.42;99691.94;4494495;31;33623;-77
2022/07/27 00:38:11;;;;;;;7.60;5.95;;;;;;;19.40;71.43;99697.13;4497040;31;33262;-80
2022/07/27 00:40:39;;;;;;;9.35;6.60;;;;;;;19.49;70.84;99694.56;4496661;31;34615;-77
2022/07/27 00:43:06;;;;;;;9.20;6.65;;;;;;;19.57;70.87;99689.34;4494613;31;34560;-78
2022/07/27 00:45:34;;;;;;;9.85;6.45;;;;;;;20.28;67.93;99695.87;4494683;31;33586;-82
2022/07/27 00:48:01;;;;;;;8.68;6.45;;;;;;;19.76;69.89;99691.25;4486408;31;33944;-80
2022/07/27 00:50:29;;;;;;;9.75;6.60;;;;;;;19.99;69.53;99687.84;4489499;31;33825;-79
2022/07/27 00:52:57;;;;;;;10.23;7.10;;;;;;;20.26;68.19;99691.47;4488436;31;33775;-79
2022/07/27 00:55:26;;;;;;;9.88;6.32;;;;;;;19.77;69.92;99687.75;4492089;31;33800;-80
2022/07/27 00:57:53;;;;;;;8.48;5.93;;;;;;;20.07;68.84;99695.78;4491229;31;33375;-78
2022/07/27 01:00:26;;;;;;;8.23;5.65;;;;;;;20.03;67.57;99679.13;4497267;31;33822;-81
2022/07/27 01:02:54;;;;;;;8.70;5.75;;;;;;;19.39;69.99;99683.09;4493161;31;34737;-78
2022/07/27 01:05:24;;;;;;;7.57;5.40;;;;;;;20.17;67.23;99682.69;4492993;31;34302;-76
2022/07/27 01:08:05;;;;;;;8.20;5.70;;;;;;;19.31;69.95;99692.66;4491463;31;33147;-80
2022/07/27 01:10:33;;;;;;;8.98;5.60;;;;;;;19.24;69.59;99701.38;4495355;31;33837;-80
2022/07/27 01:13:01;;;;;;;7.80;5.03;;;;;;;19.11;70.66;99694.25;4489267;31;34710;-77
2022/07/27 01:15:29;;;;;;;7.22;4.70;;;;;;;19.56;68.51;99692.84;4492018;31;33488;-76
2022/07/27 01:18:03;;;;;;;9.00;5.53;;;;;;;20.01;66.51;99691.34;4486580;31;33394;-79
2022/07/27 01:20:32;;;;;;;8.80;4.80;;;;;;;19.20;68.95;99694.31;4495903;31;34145;-77
2022/07/27 01:22:59;;;;;;;9.63;4.75;;;;;;;19.72;67.14;99699.09;4495497;31;33583;-82
2022/07/27 01:25:27;;;;;;;6.80;4.95;;;;;;;19.78;66.79;99701.75;4496938;31;34555;-75
2022/07/27 01:27:55;;;;;;;7.57;5.12;;;;;;;20.02;65.82;99703.66;4490048;31;32914;-79
2022/07/27 01:30:31;;;;;;;7.20;5.25;;;;;;;19.57;66.95;99694.63;4492911;31;33960;-82
2022/07/27 01:33:03;;;;;;;6.90;5.20;;;;;;;20.11;65.43;99697.53;4493173;31;34138;-79
2022/07/27 01:35:31;;;;;;;7.30;4.80;;;;;;;19.43;67.65;99695.38;4490283;31;34581;-78
2022/07/27 01:37:59;;;;;;;9.52;5.12;;;;;;;19.48;67.20;99684.03;4478433;31;32829;-82
2022/07/27 01:40:27;;;;;;;7.40;4.90;;;;;;;19.70;66.11;99687.66;4500232;31;36117;-78
2022/07/27 01:42:54;;;;;;;8.48;5.53;;;;;;;19.81;66.98;99694.75;4492873;31;33600;-79
2022/07/27 01:45:22;;;;;;;9.23;6.30;;;;;;;19.25;69.23;99697.88;4495904;31;33799;-80
2022/07/27 01:47:49;;;;;;;9.23;6.70;;;;;;;19.24;69.51;99696.13;4499575;31;34170;-81
2022/07/27 01:50:17;;;;;;;10.07;6.75;;;;;;;18.71;72.98;99705.22;4498073;31;33945;-79
2022/07/27 01:52:44;;;;;;;10.35;7.40;;;;;;;18.56;74.32;99711.22;4492619;31;32820;-78
2022/07/27 01:55:12;;;;;;;9.70;7.30;;;;;;;19.18;72.32;99691.69;4492470;31;34480;-80
2022/07/27 01:57:39;;;;;;;10.25;8.10;;;;;;;18.64;74.22;99691.16;4494936;31;33357;-79
2022/07/27 02:00:10;;;;;;;10.25;8.10;;;;;;;18.85;73.50;99687.91;4494485;31;33826;-83
2022/07/27 02:02:38;;;;;;;11.82;8.45;;;;;;;18.57;74.80;99694.59;4497639;31;33963;-84
2022/07/27 02:05:10;;;;;;;13.80;8.55;;;;;;;18.39;75.83;99691.78;4496371;31;34212;-77
2022/07/27 02:07:41;;;;;;;14.68;8.77;;;;;;;18.74;74.71;99688.66;4495871;31;33448;-78
2022/07/27 02:10:09;;;;;;;12.57;8.82;;;;;;;18.35;76.30;99689.94;4493686;31;33936;-79
2022/07/27 02:12:37;;;;;;;15.65;8.88;;;;;;;18.06;77.68;99685.28;4491062;31;33512;-76
2022/07/27 02:15:20;;;;;;;10.93;9.07;;;;;;;18.77;74.94;99688.66;4490669;31;34886;-80
2022/07/27 02:17:51;;;;;;;;;;;;;;;18.27;77.44;99696.00;4490741;31;33398;-81
2022/07/27 02:20:23;;;;;;;12.32;8.07;;;;;;;18.51;76.03;99685.78;4501002;31;34621;-81
2022/07/27 02:22:51;;;;;;;12.93;8.18;;;;;;;18.34;76.35;99685.59;4501187;31;33897;-80
2022/07/27 02:25:19;;;;;;;12.27;7.97;;;;;;;18.01;77.32;99684.31;4498143;31;33831;-79
2022/07/27 02:27:46;;;;;;;11.98;8.27;;;;;;;18.00;76.99;99687.78;4502509;31;33567;-80
2022/07/27 02:30:14;;;;;;;10.95;7.65;;;;;;;17.85;77.93;99689.34;4497051;31;33826;-78
2022/07/27 02:32:44;;;;;;;10.70;8.02;;;;;;;18.13;76.52;99696.69;4494428;31;33967;-82
2022/07/27 02:35:11;;;;;;;10.18;7.07;;;;;;;18.62;74.47;99697.25;4492420;31;33735;-77
2022/07/27 02:37:47;;;;;;;13.07;7.65;;;;;;;19.09;72.06;99698.63;4500429;31;33495;-79
2022/07/27 02:40:17;;;;;;;11.05;7.75;;;;;;;18.79;73.01;99700.03;4499575;31;34638;-76
2022/07/27 02:42:45;;;;;;;12.15;7.55;;;;;;;19.26;71.44;99694.38;4492150;31;34560;-81
2022/07/27 02:45:14;;;;;;;10.25;7.90;;;;;;;18.64;74.14;99699.03;4500816;31;33820;-78
2022/07/27 02:47:42;;;;;;;9.68;7.00;;;;;;;18.92;72.12;99696.72;4498126;31;34151;-80
2022/07/27 02:50:10;;;;;;;14.40;8.05;;;;;;;19.30;70.71;99690.91;4493136;31;33480;-78
2022/07/27 02:52:38;;;;;;;8.88;7.40;;;;;;;19.20;70.90;99694.31;4501839;31;33937;-78
2022/07/27 02:55:06;;;;;;;12.70;8.27;;;;;;;18.74;71.94;99693.91;4497437;31;33696;-82
2022/07/27 02:57:36;;;;;;;10.52;7.70;;;;;;;18.99;70.88;99681.91;4500930;31;34159;-77
2022/07/27 03:00:06;;;;;;;12.85;7.47;;;;;;;17.92;75.96;99689.44;4494374;31;33700;-76
2022/07/27 03:02:34;;;;;;;12.32;8.13;;;;;;;18.23;74.63;99696.84;4498975;31;34186;-80
2022/07/27 03:05:06;;;;;;;10.73;8.05;;;;;;;18.40;73.53;99704.00;4500091;31;33949;-80
2022/07/27 03:07:34;;;;;;;10.93;7.87;;;;;;;18.13;75.04;99700.19;4494304;31;33982;-79
2022/07/27 03:10:02;;;;;;;12.88;7.70;;;;;;;18.69;72.03;99700.81;4499979;31;33947;-82
2022/07/27 03:12:30;;;;;;;10.95;7.78;;;;;;;18.46;72.91;99699.69;4489381;31;33745;-77
2022/07/27 03:14:57;;;;;;;11.98;7.70;;;;;;;18.57;72.56;99691.97;4501048;31;33919;-77
2022/07/27 03:17:25;;;;;;;12.68;7.32;;;;;;;18.14;74.20;99701.97;4493278;31;31705;-78
2022/07/27 03:19:52;;;;;;;11.00;7.28;;;;;;;17.94;75.29;99692.94;4499875;31;34592;-77
2022/07/27 03:22:20;;;;;;;9.32;7.22;;;;;;;18.76;72.37;99692.16;4500338;31;33956;-76
2022/07/27 03:24:47;;;;;;;9.38;6.78;;;;;;;19.79;67.70;99691.25;4498671;31;34339;-80
2022/07/27 03:27:15;;;;;;;9.65;6.78;;;;;;;20.03;66.37;99684.38;4492918;31;34088;-80
2022/07/27 03:29:43;;;;;;;10.95;7.10;;;;;;;19.58;67.71;99685.84;4496065;31;33691;-80
2022/07/27 03:32:10;;;;;;;11.63;7.20;;;;;;;19.24;69.17;99697.00;4493227;31;33904;-82
2022/07/27 03:34:38;;;;;;;9.55;7.20;;;;;;;18.75;71.32;99706.13;4488737;31;34428;-80
2022/07/27 03:37:05;;;;;;;10.07;7.30;;;;;;;18.98;70.87;99703.75;4494429;31;34303;-77
2022/07/27 03:39:33;;;;;;;9.50;7.18;;;;;;;18.11;73.81;99701.91;4491021;31;33935;-80
2022/07/27 03:42:01;;;;;;;10.82;6.70;;;;;;;17.90;74.89;99699.00;4499532;31;34030;-80
2022/07/27 03:44:28;;;;;;;9.70;6.68;;;;;;;18.08;74.36;99709.75;4496873;31;34534;-77
2022/07/27 03:46:56;;;;;;;8.75;6.07;;;;;;;18.35;73.24;99717.09;4500229;31;33231;-81
2022/07/27 03:49:23;;;;;;;8.75;6.82;;;;;;;18.47;72.34;99711.09;4500162;31;33754;-81
2022/07/27 03:51:51;;;;;;;10.20;6.28;;;;;;;18.35;72.63;99716.19;4488777;31;34592;-78
2022/07/27 03:54:19;;;;;;;9.65;6.28;;;;;;;18.28;72.97;99710.00;4498679;31;33906;-79
2022/07/27 03:56:46;;;;;;;8.90;7.07;;;;;;;18.54;72.52;99718.16;4500543;31;34171;-80
2022/07/27 03:59:14;;;;;;;9.85;6.45;;;;;;;18.19;73.62;99710.75;4498436;31;33723;-81
2022/07/27 04:01:42;;;;;;;11.38;6.90;;;;;;;18.52;72.88;99714.62;4499649;31;33795;-78
2022/07/27 04:04:10;;;;;;;10.60;6.70;;;;;;;19.09;70.52;99711.75;4500441;31;33303;-78
2022/07/27 04:06:37;;;;;;;10.20;6.45;;;;;;;19.11;70.30;99707.38;4501094;31;35950;-77
2022/07/27 04:09:05;;;;;;;10.52;6.53;;;;;;;18.83;71.22;99712.37;4500027;31;33774;-80
2022/07/27 04:11:35;;;;;;;10.23;6.47;;;;;;;19.49;68.70;99709.41;4500679;31;34646;-79
2022/07/27 04:14:10;;;;;;;10.60;6.50;;;;;;;19.74;67.56;99707.88;4499825;31;33728;-79
2022/07/27 04:16:40;;;;;;;10.95;6.32;;;;;;;19.09;69.61;99707.38;4498687;31;33140;-78
2022/07/27 04:19:07;;;;;;;8.45;6.10;;;;;;;18.91;71.01;99718.59;4493732;31;34470;-79
2022/07/27 04:21:35;;;;;;;10.77;6.62;;;;;;;19.99;66.85;99711.50;4493164;31;33940;-77
2022/07/27 04:24:04;;;;;;;10.23;7.00;;;;;;;19.09;69.82;99711.75;4497702;31;33838;-80
2022/07/27 04:26:31;;;;;;;10.88;6.82;;;;;;;19.40;69.01;99723.38;4500292;31;34199;-81
2022/07/27 04:28:59;;;;;;;11.43;7.03;;;;;;;19.31;69.18;99721.53;4500486;31;33824;-78
2022/07/27 04:31:27;;;;;;;11.35;6.87;;;;;;;19.88;67.35;99721.97;4497745;31;33840;-81
2022/07/27 04:33:54;;;;;;;7.82;6.45;;;;;;;19.55;68.48;99725.25;4496386;31;34534;-79
2022/07/27 04:36:21;;;;;;;15.02;6.70;;;;;;;19.11;70.92;99731.88;4497940;31;34212;-78
2022/07/27 04:38:49;;;;;;;9.52;6.37;;;;;;;19.93;67.33;99719.37;4500196;31;33614;-79
2022/07/27 04:41:17;;;;;;;9.95;6.43;;;;;;;19.44;69.17;99720.78;4500089;31;34201;-80
2022/07/27 04:43:44;;;;;;;12.43;7.10;;;;;;;20.64;64.73;99717.06;4494238;31;34351;-80
2022/07/27 04:46:15;;;;;;;10.73;7.53;;;;;;;20.58;64.11;99716.12;4494174;31;33482;-80
2022/07/27 04:48:42;;;;;;;11.52;6.65;;;;;;;19.53;68.03;99713.81;4499290;31;33760;-79
2022/07/27 04:51:16;;;;;;;10.43;7.70;;;;;;;20.29;65.66;99707.28;4495143;31;34570;-79
2022/07/27 04:53:44;;;;;;;11.38;6.93;;;;;;;19.67;67.34;99714.81;4499359;31;33620;-80
2022/07/27 04:56:25;;;;;;;11.57;7.45;;;;;;;20.72;64.14;99721.47;4498146;31;33312;-79
2022/07/27 04:58:54;;;;;;;9.18;7.03;;;;;;;20.52;64.76;99720.50;4492370;31;33557;-77
2022/07/27 05:01:22;;;;;;;11.98;7.10;;;;;;;19.45;69.02;99727.81;4498439;31;33879;-79
2022/07/27 05:03:50;;;;;;;12.25;7.70;;;;;;;20.13;66.82;99733.50;4495294;31;34490;-77
2022/07/27 05:06:18;;;;;;;9.32;7.03;;;;;;;20.00;67.43;99727.28;4495000;31;34038;-79
2022/07/27 05:08:45;;;;;;;11.15;7.30;;;;;;;19.56;68.72;99738.38;4494157;31;33776;-79
2022/07/27 05:11:13;;;;;;;9.15;7.40;;;;;;;19.83;67.64;99729.81;4499624;31;33925;-82
2022/07/27 05:13:41;;;;;;;11.70;6.82;;;;;;;19.50;68.86;99740.09;4497720;31;34005;-78
2022/07/27 05:16:09;;;;;;;10.98;7.18;;;;;;;19.60;68.51;99734.03;4497146;31;33913;-80
2022/07/27 05:18:37;;;;;;;11.65;7.20;;;;;;;20.07;67.31;99738.75;4496989;31;33624;-79
2022/07/27 05:21:05;;;;;;;10.88;6.75;;;;;;;20.59;65.57;99739.00;4492544;31;34660;-79
2022/07/27 05:23:33;;;;;;;9.85;6.82;;;;;;;20.77;65.47;99739.91;4491828;31;33675;-81
2022/07/27 05:26:01;;;;;;;9.73;6.35;;;;;;;20.98;64.20;99745.22;4492829;31;34218;-77
2022/07/27 05:28:28;;;;;;;10.23;7.30;;;;;;;20.91;64.63;99746.06;4495198;31;33853;-78
2022/07/27 05:30:56;;;;;;;11.68;6.57;;;;;;;21.13;63.93;99746.09;4488557;31;34719;-80
2022/07/27 05:33:24;;;;;;;12.10;6.43;;;;;;;20.81;64.74;99744.31;4498719;31;33621;-77
2022/07/27 05:35:51;;;;;;;10.48;6.68;;;;;;;21.43;62.36;99741.72;4491727;31;33346;-79
2022/07/27 05:38:19;;;;;;;7.97;6.05;;;;;;;22.41;58.67;99748.59;4489000;31;33964;-79
2022/07/27 05:40:47;;;;;;;8.48;5.90;;;;;;;21.18;61.84;99744.34;4495526;31;34668;-80
2022/07/27 05:43:15;;;;;;;10.57;6.28;;;;;;;22.17;59.32;99743.41;4486732;31;32474;-78
2022/07/27 05:45:42;;;;;;;12.63;6.60;;;;;;;22.34;58.28;99753.03;4492144;31;34078;-81
2022/07/27 05:48:10;;;;;;;8.88;6.22;;;;;;;22.03;59.38;99747.81;4488135;31;33896;-81
2022/07/27 05:50:38;;;;;;;11.95;6.50;;;;;;;21.53;60.13;99751.41;4496218;31;34044;-77
2022/07/27 05:53:05;;;;;;;7.43;6.07;;;;;;;21.18;60.97;99755.75;4496971;31;34372;-80
2022/07/27 05:55:33;;;;;;;9.35;5.57;;;;;;;22.06;58.86;99753.09;4496662;31;33224;-81
2022/07/27 05:58:00;;;;;;;9.48;5.45;;;;;;;22.24;57.36;99751.28;4479208;31;33897;-81
2022/07/27 06:00:28;;;;;;;8.75;5.90;;;;;;;22.70;55.18;99764.31;4489876;31;33606;-82
2022/07/27 06:02:56;;;;;;;8.55;5.65;;;;;;;23.04;54.68;99761.47;4486891;31;34619;-79
2022/07/27 06:05:23;;;;;;;8.45;5.60;;;;;;;22.10;57.51;99765.37;4491031;31;33388;-81
2022/07/27 06:08:07;;;;;;;8.10;5.43;;;;;;;22.22;57.47;99763.59;4491384;31;32481;-78
2022/07/27 06:10:36;;;;;;;8.60;5.37;;;;;;;22.42;55.63;99772.34;4489558;31;33965;-77
2022/07/27 06:13:06;;;;;;;8.27;5.35;;;;;;;22.33;56.91;99780.31;4495515;31;32399;-79
2022/07/27 06:15:34;;;;;;;10.30;5.53;;;;;;;22.29;56.35;99775.91;4499665;31;33387;-77
2022/07/27 06:18:02;;;;;;;11.60;5.82;;;;;;;22.76;55.37;99777.47;4498828;31;33946;-80
2022/07/27 06:20:30;;;;;;;8.50;5.45;;;;;;;22.42;55.69;99780.25;4492406;31;33651;-78
2022/07/27 06:22:59;;;;;;;10.05;4.75;;;;;;;23.05;53.75;99779.09;4499438;31;33593;-81
2022/07/27 06:25:28;;;;;;;10.35;4.57;;;;;;;22.75;52.17;99781.88;4497840;31;33435;-79
2022/07/27 06:28:03;;;;;;;10.43;4.90;;;;;;;22.83;53.01;99780.94;4491025;31;34460;-79
2022/07/27 06:30:31;;;;;;;10.07;5.18;;;;;;;23.63;51.18;99776.00;4497717;31;34842;-78
2022/07/27 06:32:59;;;;;;;8.18;4.25;;;;;;;23.58;51.21;99772.50;4496772;31;33980;-78
2022/07/27 06:35:26;;;;;;;7.70;4.60;;;;;;;24.19;50.05;99768.41;4499966;31;34062;-79
2022/07/27 06:37:54;;;;;;;6.57;4.70;;;;;;;24.05;49.14;99770.31;4499085;31;34615;-80
2022/07/27 06:40:21;;;;;;;7.72;4.28;;;;;;;24.55;48.26;99770.66;4500793;31;33817;-81
2022/07/27 06:42:55;;;;;;;7.60;3.75;;;;;;;24.59;47.45;99777.66;4489943;31;34635;-80
2022/07/27 06:45:23;;;;;;;6.60;3.90;;;;;;;25.31;45.99;99774.03;4494593;31;34210;-77
2022/07/27 06:47:50;;;;;;;6.82;3.53;;;;;;;26.06;43.47;99769.22;4486895;31;33549;-82
2022/07/27 06:50:19;;;;;;;5.25;3.53;;;;;;;26.16;41.64;99756.66;4493893;31;33730;-81
2022/07/27 06:52:48;;;;;;;8.27;3.78;;;;;;;25.90;43.66;99752.66;4490927;31;34502;-80
2022/07/27 06:55:16;;;;;;;5.93;3.40;;;;;;;26.14;43.63;99755.81;4493653;31;33115;-79
2022/07/27 06:57:45;;;;;;;5.82;3.80;;;;;;;25.67;42.42;99751.31;4491216;31;34487;-80
2022/07/27 07:00:13;;;;;;;7.40;3.75;;;;;;;25.17;43.64;99760.97;4494231;31;34384;-78
2022/07/27 07:03:07;;;;;;;6.97;3.35;;;;;;;26.20;41.91;99750.37;4489938;31;34513;-79
2022/07/27 07:05:43;;;;;;;6.18;3.90;;;;;;;25.49;43.49;99754.28;4498001;31;33153;-82
2022/07/27 07:08:13;;;;;;;6.70;3.17;;;;;;;25.59;42.75;99753.22;4488185;31;33974;-78
2022/07/27 07:10:43;;;;;;;6.60;2.72;;;;;;;25.57;40.47;99749.72;4494626;31;34126;-77
2022/07/27 07:13:10;;;;;;;4.43;2.83;;;;;;;26.31;38.43;99750.13;4489637;31;32230;-76
2022/07/27 07:15:39;;;;;;;5.15;2.75;;;;;;;26.70;36.98;99748.47;4486542;31;34079;-79
2022/07/27 07:18:08;;;;;;;7.20;3.40;;;;;;;27.48;35.97;99752.84;4488937;31;33880;-78
2022/07/27 07:20:36;;;;;;;3.62;2.60;;;;;;;27.99;35.26;99747.97;4498914;31;33914;-78
2022/07/27 07:23:04;;;;;;;5.50;2.85;;;;;;;28.43;33.16;99740.50;4501740;31;33641;-79
2022/07/27 07:25:32;;;;;;;5.65;2.95;;;;;;;28.63;33.50;99741.72;4491913;31;33422;-80
2022/07/27 07:28:01;;;;;;;4.85;2.53;;;;;;;29.24;31.93;99736.25;4498668;31;33757;-77
2022/07/27 07:30:29;;;;;;;4.75;2.42;;;;;;;29.12;31.34;99729.53;4496469;31;33610;-81
2022/07/27 07:32:57;;;;;;;6.37;2.42;;;;;;;30.15;30.64;99735.81;4495396;31;33727;-81
2022/07/27 07:35:25;;;;;;;3.55;2.05;;;;;;;31.14;28.32;99731.12;4486088;31;32516;-81
2022/07/27 07:37:53;;;;;;;4.60;2.58;;;;;;;31.66;27.59;99727.19;4492772;31;33918;-79
2022/07/27 07:40:21;;;;;;;6.10;2.85;;;;;;;32.43;26.16;99713.03;4491104;31;34507;-78
2022/07/27 07:43:12;;;;;;;6.32;2.55;;;;;;;32.65;25.64;99719.16;4499808;31;34445;-80
2022/07/27 07:45:42;;;;;;;5.45;2.42;;;;;;;34.55;22.23;99715.69;4493311;31;32459;-79
2022/07/27 07:48:19;;;;;;;6.37;2.10;;;;;;;35.31;21.98;99712.31;4495042;31;33637;-80
2022/07/27 07:50:49;;;;;;;5.00;2.08;;;;;;;36.43;20.62;99715.38;4490229;31;34644;-79
2022/07/27 07:53:22;;;;;;;5.20;2.45;;;;;;;36.34;20.40;99710.59;4493522;31;33617;-79
2022/07/27 07:55:52;;;;;;;4.70;2.60;;;;;;;34.90;20.79;99709.31;4495248;31;33979;-78
2022/07/27 07:58:19;;;;;;;3.60;2.40;;;;;;;34.99;20.39;99701.56;4488651;31;34651;-77
2022/07/27 08:00:47;;;;;;;5.45;2.80;;;;;;;35.21;20.14;99703.03;4501790;31;33803;-79
2022/07/27 08:03:15;;;;;;;4.45;2.70;;;;;;;34.32;21.32;99708.06;4493441;31;33782;-79
2022/07/27 08:05:42;;;;;;;4.95;2.92;;;;;;;35.30;20.36;99697.09;4497112;31;33232;-78
2022/07/27 08:08:10;;;;;;;5.12;3.20;;;;;;;35.25;19.57;99699.19;4488810;31;33982;-78
2022/07/27 08:10:38;;;;;;;6.00;3.67;;;;;;;36.17;18.38;99696.31;4494973;31;34660;-79
2022/07/27 08:13:05;;;;;;;5.00;3.10;;;;;;;34.60;21.10;99691.25;4492761;31;33887;-78
2022/07/27 08:15:33;;;;;;;5.57;3.92;;;;;;;34.40;21.16;99686.97;4493530;31;33464;-76
2022/07/27 08:18:04;;;;;;;6.03;4.43;;;;;;;35.08;20.51;99696.59;4491981;31;34467;-79
2022/07/27 08:20:32;;;;;;;5.05;2.95;;;;;;;33.95;21.19;99693.91;4494267;31;34775;-78
2022/07/27 08:23:00;;;;;;;5.53;3.00;;;;;;;36.07;19.72;99687.06;4489465;31;34411;-81
2022/07/27 08:25:28;;;;;;;6.87;3.92;;;;;;;36.80;18.22;99686.03;4487945;31;33979;-79
2022/07/27 08:27:56;;;;;;;7.30;5.18;;;;;;;35.93;20.12;99692.44;4488354;31;34638;-76
2022/07/27 08:30:24;;;;;;;8.77;6.25;;;;;;;36.65;18.54;99692.44;4495556;31;33996;-80
2022/07/27 08:32:58;;;;;;;11.02;8.82;;;;;;;36.18;19.09;99675.63;4492393;31;34686;-78
2022/07/27 08:35:27;;;;;;;8.90;8.00;;;;;;;35.90;19.20;99673.78;4491883;31;32568;-80
2022/07/27 08:37:55;;;;;;;14.00;10.13;;;;;;;36.26;19.04;99680.50;4491946;31;33623;-78
2022/07/27 08:40:23;;;;;;;7.78;6.45;;;;;;;36.54;18.65;99683.16;4498600;31;34566;-78
2022/07/27 08:43:14;;;;;;;14.27;12.80;;;;;;;36.60;19.50;99677.38;4491152;31;33980;-82
2022/07/27 08:45:52;;;;;;;17.98;16.08;;;;;;;36.79;17.99;99679.75;4489950;31;33420;-77
2022/07/27 08:48:23;;;;;;;17.73;16.02;;;;;;;35.53;18.49;99676.00;4483725;31;35392;-80
2022/07/27 08:50:52;;;;;;;19.12;15.68;;;;;;;34.24;20.09;99687.81;4490110;31;33304;-79
2022/07/27 08:53:20;;;;;;;18.17;16.25;;;;;;;33.24;21.02;99679.59;4492015;31;33893;-76
2022/07/27 08:55:48;;;;;;;14.27;12.77;;;;;;;33.79;20.86;99672.38;4493327;31;34117;-76
2022/07/27 08:58:16;;;;;;;16.00;14.32;;;;;;;33.87;20.84;99676.38;4476328;31;33829;-77
2022/07/27 09:00:47;;;;;;;14.20;12.70;;;;;;;34.10;20.30;99676.94;4492989;31;32756;-78
2022/07/27 09:03:16;;;;;;;11.98;10.32;;;;;;;33.44;21.10;99667.88;4494330;31;33332;-80
2022/07/27 09:05:49;;;;;;;11.07;8.40;;;;;;;33.76;21.44;99668.00;4494306;31;33256;-83
2022/07/27 09:08:26;;;;;;;10.80;5.75;;;;;;;34.65;18.93;99679.28;4493862;31;33174;-76
2022/07/27 09:10:58;;;;;;;7.25;4.95;;;;;;;33.20;22.30;99682.53;4497674;31;34625;-79
2022/07/27 09:13:32;;;;;;;7.28;4.87;;;;;;;33.68;22.10;99675.59;4493230;31;34530;-79
2022/07/27 09:16:06;;;;;;;6.65;5.20;;;;;;;33.91;20.77;99666.31;4492743;31;33370;-77
2022/07/27 09:19:01;;;;;;;8.52;7.45;;;;;;;33.56;21.27;99668.19;4491276;31;34617;-79
2022/07/27 09:21:29;;;;;;;7.87;6.35;;;;;;;33.97;19.84;99676.72;4488696;31;33777;-79
2022/07/27 09:24:06;;;;;;;7.87;5.37;;;;;;;33.65;20.63;99675.75;4489523;31;33884;-80
2022/07/27 09:27:01;;;;;;;7.78;5.55;;;;;;;33.39;21.50;99672.59;4484014;31;33412;-77
2022/07/27 09:29:33;;;;;;;8.65;6.20;;;;;;;33.87;20.32;99668.31;4494281;31;33583;-79
2022/07/27 09:32:12;;;;;;;8.88;6.00;;;;;;;33.87;20.82;99665.63;4489010;31;32489;-77
2022/07/27 09:34:40;;;;;;;6.72;5.20;;;;;;;33.50;20.80;99670.22;4488538;31;34551;-78
2022/07/27 09:37:11;;;;;;;7.62;6.20;;;;;;;34.14;20.51;99673.13;4497257;31;33302;-78
2022/07/27 09:39:38;;;;;;;7.78;6.05;;;;;;;33.94;20.52;99659.91;4488384;31;34084;-80
2022/07/27 09:42:15;;;;;;;9.73;5.68;;;;;;;33.85;20.68;99667.50;4498334;31;34706;-77
2022/07/27 09:45:03;;;;;;;7.75;5.28;;;;;;;34.52;20.04;99667.47;4497978;31;33445;-77
2022/07/27 09:47:32;;;;;;;8.35;5.18;;;;;;;34.44;20.52;99665.22;4490336;31;34284;-78
2022/07/27 09:50:19;;;;;;;7.20;5.62;;;;;;;34.45;20.44;99658.87;4491415;31;32139;-79
2022/07/27 09:52:47;;;;;;;6.70;5.32;;;;;;;34.78;19.78;99659.75;4485468;32;33996;-78
2022/07/27 09:55:19;;;;;;;6.28;5.10;;;;;;;34.00;19.85;99660.44;4494584;31;33609;-80
2022/07/27 09:58:04;;;;;;;7.40;5.00;;;;;;;34.66;19.53;99664.00;4499251;31;34182;-76
2022/07/27 10:00:32;;;;;;;9.18;5.32;;;;;;;35.03;19.62;99657.37;4490646;31;34662;-78
2022/07/27 10:03:00;;;;;;;9.02;5.12;;;;;;;35.15;19.91;99665.69;4493244;31;34738;-79
2022/07/27 10:05:28;;;;;;;6.28;5.28;;;;;;;34.95;19.33;99656.97;4493065;31;33651;-80
2022/07/27 10:07:55;;;;;;;7.30;5.40;;;;;;;34.85;19.17;99655.78;4501183;31;34066;-77
2022/07/27 10:10:23;;;;;;;9.23;5.30;;;;;;;34.34;19.53;99665.81;4495733;31;34092;-73
2022/07/27 10:12:51;;;;;;;7.57;5.37;;;;;;;34.94;19.04;99651.66;4485692;31;33955;-78
2022/07/27 10:15:24;;;;;;;7.75;5.53;;;;;;;35.46;18.86;99647.72;4502095;31;33523;-77
2022/07/27 10:17:58;;;;;;;8.20;6.60;;;;;;;35.41;18.46;99651.56;4491843;31;33255;-80
2022/07/27 10:20:28;;;;;;;7.53;6.72;;;;;;;35.13;18.92;99654.12;4494161;31;33644;-77
2022/07/27 10:22:57;;;;;;;7.93;6.78;;;;;;;35.36;18.78;99647.41;4492980;31;33948;-77
2022/07/27 10:25:26;;;;;;;8.70;7.10;;;;;;;35.67;18.44;99649.13;4495401;31;33710;-78
2022/07/27 10:28:11;;;;;;;8.38;7.37;;;;;;;35.92;17.69;99643.06;4499242;31;33832;-79
2022/07/27 10:30:39;;;;;;;9.85;7.18;;;;;;;35.02;18.65;99644.88;4489355;31;33902;-78
2022/07/27 10:33:41;;;;;;;8.68;5.47;;;;;;;35.64;18.67;99625.91;4494969;31;33735;-78
2022/07/27 10:36:18;;;;;;;7.82;4.93;;;;;;;35.50;18.51;99638.47;4486992;31;32073;-80
2022/07/27 10:39:05;;;;;;;5.90;5.00;;;;;;;36.05;18.04;99639.59;4491985;31;34047;-77
2022/07/27 10:41:42;;;;;;;5.78;4.47;;;;;;;36.42;17.39;99638.13;4490190;31;34077;-79
2022/07/27 10:44:22;;;;;;;6.45;5.30;;;;;;;36.58;16.88;99636.13;4492760;31;34001;-80
2022/07/27 10:46:53;;;;;;;7.82;5.65;;;;;;;36.78;17.33;99628.59;4489852;31;33550;-79
2022/07/27 10:49:25;;;;;;;8.45;6.70;;;;;;;36.15;17.44;99628.13;4496026;31;33699;-77
2022/07/27 10:51:54;;;;;;;7.40;5.25;;;;;;;36.24;17.46;99625.81;4495000;31;34598;-78
2022/07/27 10:54:29;;;;;;;7.80;5.55;;;;;;;36.57;17.20;99629.03;4492797;31;33832;-77
2022/07/27 10:56:58;;;;;;;6.72;5.45;;;;;;;35.98;17.61;99617.53;4494077;31;33832;-80
2022/07/27 10:59:38;;;;;;;9.18;5.72;;;;;;;36.86;16.56;99631.66;4499436;31;31649;-77
2022/07/27 11:02:41;;;;;;;8.77;5.43;;;;;;;36.97;16.79;99626.41;4496894;31;34563;-77
2022/07/27 11:05:10;;;;;;;7.63;5.37;;;;;;;36.45;16.30;99616.34;4491559;31;34096;-76
2022/07/27 11:07:58;;;;;;;8.60;5.22;;;;;;;35.31;17.69;99614.50;4496276;31;33849;-80
2022/07/27 11:10:47;;;;;;;8.15;5.03;;;;;;;36.04;17.28;99611.75;4494336;31;33389;-80
2022/07/27 11:13:19;;;;;;;7.00;5.30;;;;;;;35.94;17.15;99610.63;4493830;31;33759;-76
2022/07/27 11:15:54;;;;;;;7.35;4.97;;;;;;;36.07;17.03;99621.50;4493500;31;34539;-81
2022/07/27 11:18:43;;;;;;;8.02;5.87;;;;;;;36.05;16.84;99613.50;4491815;31;33767;-79
2022/07/27 11:21:23;;;;;;;7.82;5.07;;;;;;;36.27;16.86;99617.53;4492953;31;32848;-79
2022/07/27 11:23:58;;;;;;;7.00;5.00;;;;;;;35.66;17.04;99601.56;4493027;31;33981;-78
2022/07/27 11:26:28;;;;;;;6.30;5.00;;;;;;;35.70;17.73;99597.75;4498877;31;32788;-81
2022/07/27 11:28:56;;;;;;;7.57;5.47;;;;;;;35.27;17.94;99594.09;4490670;31;33741;-79
2022/07/27 11:31:24;;;;;;;7.07;5.60;;;;;;;35.42;17.93;99599.41;4491411;31;33309;-79
2022/07/27 11:34:12;;;;;;;6.45;5.03;;;;;;;36.59;17.00;99597.41;4498104;31;34714;-80
2022/07/27 11:36:49;;;;;;;7.15;5.35;;;;;;;35.53;18.11;99597.91;4496525;31;34113;-79
2022/07/27 11:39:23;;;;;;;8.52;4.87;;;;;;;36.26;17.41;99605.00;4496664;31;34606;-81
2022/07/27 11:42:11;;;;;;;7.57;4.87;;;;;;;36.29;17.12;99604.81;4498161;31;34171;-81
2022/07/27 11:44:48;;;;;;;6.37;4.55;;;;;;;36.65;16.66;99603.41;4495830;31;34375;-78
2022/07/27 11:47:18;;;;;;;7.05;4.60;;;;;;;36.13;16.45;99600.38;4488399;31;34030;-80